Pagrindinis puslapis
METAR-TAF:

METAR-TAF

Oro uostai :

Noršiopingas, Švedija

platuma: 58-35N, ilguma: 016-09E, Aukštis: 34 m

Dabartinis oras

Ataskaita buvo paskelbta 1 valandą ir 1 minutes, ne 03:50 UTC
Vėjas 18 kt iš Vakarų
Temperatūra 5°C
Drėgmė 70%
Slėgis 982 hPa
Matomumas 10 km arba daugiau

METAR: ESSP 300350Z AUTO 26018KT 9999 FEW027/// 05/00 Q0982

Laikas: 05:51 (04:51 UTC)


TAF: trūkstamas

Orai ataskaitas ir orų prognozės (METAR, TAF).

turimą stotys yra geltonos ir raudonos taškus žemėlapyje.

Perkelti pele per norėdami pamatyti stoties vardą.

Tada spustelėkite, norėdami matyti oro stebėjimo ir prognozės.

Norėdami pakeisti žemėlapį: spustelėkite ant žalios mygtukų su juodo kryžiaus žemyn,; žalią mygtuką su brūkšneliu, jei norite nutolinti; arba žalių rodyklių gretimoms žemėlapius.


METAR-TAF: